Time;durP1;ratioP1;P1;durP2;ratioP2;P2;SDS_P1;SDS_P2;PMS_P1;PMS_P2;Temp;Humidity;BMP_temperature;BMP_pressure;BME280_temperature;BME280_humidity;BME280_pressure;Samples;Min_cycle;Max_cycle;Signal;HPM_P1;HPM_P2
2021/12/28 00:03:43;;;;;;;25.63;20.67;;;7.70;49.00;;;;;;10352465;28;20964;-71
2021/12/28 00:08:46;;;;;;;23.53;19.50;;;7.70;49.10;;;;;;10348877;28;20230;-70
2021/12/28 00:13:51;;;;;;;21.90;17.63;;;7.70;49.00;;;;;;10347299;28;20223;-70
2021/12/28 00:18:56;;;;;;;23.37;19.80;;;7.80;49.00;;;;;;10345475;28;20596;-70
2021/12/28 00:24:01;;;;;;;21.67;18.07;;;7.80;49.10;;;;;;10351775;28;20227;-70
2021/12/28 00:29:05;;;;;;;23.63;20.00;;;7.80;49.00;;;;;;10345863;28;20222;-71
2021/12/28 00:34:09;;;;;;;23.50;19.03;;;7.90;49.10;;;;;;10351809;28;20230;-71
2021/12/28 00:39:12;;;;;;;21.43;18.33;;;7.90;49.20;;;;;;10353361;28;20227;-70
2021/12/28 00:44:16;;;;;;;26.37;21.43;;;7.90;49.00;;;;;;10346938;28;20240;-70
2021/12/28 00:49:21;;;;;;;23.30;18.57;;;7.90;48.80;;;;;;10351002;28;20236;-70
2021/12/28 00:54:24;;;;;;;23.50;19.10;;;7.90;48.90;;;;;;10344441;28;20733;-71
2021/12/28 00:59:27;;;;;;;27.23;21.00;;;7.90;48.80;;;;;;10351554;28;20711;-70
2021/12/28 01:04:32;;;;;;;23.07;18.13;;;8.00;49.00;;;;;;10351459;28;20727;-70
2021/12/28 01:09:35;;;;;;;21.93;17.37;;;8.00;49.30;;;;;;10350437;28;20234;-70
2021/12/28 01:14:38;;;;;;;22.93;18.17;;;8.00;49.10;;;;;;10355222;28;20234;-70
2021/12/28 01:19:43;;;;;;;18.73;16.40;;;8.00;49.10;;;;;;10352310;28;20782;-70
2021/12/28 01:24:46;;;;;;;17.67;15.13;;;8.00;49.30;;;;;;10351398;28;20238;-70
2021/12/28 01:29:50;;;;;;;15.73;13.60;;;8.00;49.10;;;;;;10350916;28;20237;-70
2021/12/28 01:34:54;;;;;;;19.00;16.83;;;8.00;49.00;;;;;;10346602;28;20967;-70
2021/12/28 01:40:03;;;;;;;19.97;16.77;;;8.10;49.10;;;;;;10353137;28;20245;-70
2021/12/28 01:45:07;;;;;;;17.80;15.17;;;8.10;48.80;;;;;;10351947;28;20225;-71
2021/12/28 01:50:12;;;;;;;18.90;16.13;;;8.10;48.70;;;;;;10354954;28;20223;-70
2021/12/28 01:55:16;;;;;;;17.27;14.77;;;8.00;48.60;;;;;;10357644;28;20226;-70
2021/12/28 02:00:20;;;;;;;13.47;12.00;;;8.00;48.40;;;;;;10355134;28;20226;-70
2021/12/28 02:05:24;;;;;;;16.10;13.93;;;7.90;48.50;;;;;;10354979;28;20234;-70
2021/12/28 02:10:27;;;;;;;13.67;12.27;;;7.90;48.40;;;;;;10351695;28;20605;-70
2021/12/28 02:15:31;;;;;;;14.77;13.20;;;7.90;48.30;;;;;;10354532;28;20714;-70
2021/12/28 02:20:36;;;;;;;15.57;13.17;;;7.80;48.20;;;;;;10353210;28;20226;-69
2021/12/28 02:25:40;;;;;;;15.80;12.67;;;7.80;48.30;;;;;;10356014;28;20601;-69
2021/12/28 02:30:46;;;;;;;13.03;11.73;;;7.80;48.60;;;;;;10355227;28;20250;-69
2021/12/28 02:35:52;;;;;;;14.60;13.10;;;7.80;48.20;;;;;;10350742;28;20314;-69
2021/12/28 02:40:55;;;;;;;14.00;12.60;;;7.80;47.90;;;;;;10353480;28;20237;-69
2021/12/28 02:46:02;;;;;;;12.67;11.37;;;7.70;47.70;;;;;;10352807;28;20607;-68
2021/12/28 02:51:10;;;;;;;14.47;12.17;;;7.60;47.80;;;;;;10353896;28;20229;-69
2021/12/28 02:56:15;;;;;;;13.70;12.30;;;7.50;47.80;;;;;;10351544;28;20234;-70
2021/12/28 03:01:22;;;;;;;14.57;13.07;;;7.50;47.70;;;;;;10355392;28;20231;-69
2021/12/28 03:06:27;;;;;;;22.93;12.93;;;7.40;47.60;;;;;;10356226;28;20244;-69
2021/12/28 03:11:30;;;;;;;21.23;12.07;;;7.30;47.70;;;;;;10354979;28;20714;-69
2021/12/28 03:16:34;;;;;;;13.27;10.87;;;7.20;47.70;;;;;;10354221;28;20231;-69
2021/12/28 03:21:40;;;;;;;30.50;11.93;;;7.20;48.00;;;;;;10350943;28;20698;-69
2021/12/28 03:26:43;;;;;;;11.60;10.50;;;7.10;48.10;;;;;;10350537;28;20258;-69
2021/12/28 03:31:47;;;;;;;13.30;10.73;;;7.10;48.10;;;;;;10351609;28;20710;-69
2021/12/28 03:36:51;;;;;;;21.07;11.23;;;7.00;48.20;;;;;;10350018;28;20676;-69
2021/12/28 03:41:55;;;;;;;22.47;10.80;;;7.00;48.30;;;;;;10351974;28;20593;-69
2021/12/28 03:46:58;;;;;;;18.30;10.67;;;6.90;48.20;;;;;;10348262;28;20521;-69
2021/12/28 03:52:03;;;;;;;14.83;10.03;;;6.80;48.20;;;;;;10352753;28;20226;-69
2021/12/28 03:57:07;;;;;;;18.57;9.93;;;6.80;48.60;;;;;;10349823;28;20233;-69
2021/12/28 04:02:11;;;;;;;12.80;10.13;;;6.80;48.50;;;;;;10347119;28;20226;-69
2021/12/28 04:07:18;;;;;;;10.10;9.20;;;6.70;48.50;;;;;;10349834;28;20232;-69
2021/12/28 04:12:22;;;;;;;17.70;9.83;;;6.70;48.70;;;;;;10348716;28;20226;-69
2021/12/28 04:17:26;;;;;;;11.27;9.47;;;6.70;48.60;;;;;;10354421;28;20230;-69
2021/12/28 04:22:30;;;;;;;12.80;9.27;;;6.60;48.50;;;;;;10349360;28;20218;-69
2021/12/28 04:27:34;;;;;;;9.97;8.97;;;6.60;48.60;;;;;;10347136;28;20233;-69
2021/12/28 04:32:37;;;;;;;10.03;8.90;;;6.50;48.70;;;;;;10348959;28;20218;-69
2021/12/28 04:37:42;;;;;;;11.07;8.50;;;6.50;48.70;;;;;;10354809;28;20235;-69
2021/12/28 04:42:45;;;;;;;9.93;8.90;;;6.50;48.90;;;;;;10353126;28;20231;-69
2021/12/28 04:47:48;;;;;;;8.27;7.47;;;6.50;48.70;;;;;;10352276;28;20226;-71
2021/12/28 04:52:56;;;;;;;9.33;8.43;;;6.40;48.80;;;;;;10351408;28;20227;-69
2021/12/28 04:57:59;;;;;;;8.07;7.30;;;6.40;49.00;;;;;;10350955;28;20233;-69
2021/12/28 05:03:03;;;;;;;9.47;8.47;;;6.40;48.90;;;;;;10353756;28;20222;-70
2021/12/28 05:08:08;;;;;;;8.90;8.10;;;6.50;48.90;;;;;;10344261;28;20222;-69
2021/12/28 05:13:12;;;;;;;8.87;7.97;;;6.50;48.60;;;;;;10345114;28;20229;-69
2021/12/28 05:18:15;;;;;;;9.73;8.00;;;6.50;48.40;;;;;;10354522;28;20222;-69
2021/12/28 05:23:20;;;;;;;8.77;7.93;;;6.40;48.30;;;;;;10356917;28;20588;-69
2021/12/28 05:28:23;;;;;;;8.07;7.33;;;6.40;48.30;;;;;;10354269;28;20238;-69
2021/12/28 05:33:26;;;;;;;8.60;7.70;;;6.40;48.40;;;;;;10351423;28;20226;-69
2021/12/28 05:38:31;;;;;;;8.37;7.57;;;6.30;48.30;;;;;;10351091;28;20230;-69
2021/12/28 05:43:34;;;;;;;7.90;7.20;;;6.30;48.40;;;;;;10356160;28;20227;-69
2021/12/28 05:48:37;;;;;;;8.97;8.17;;;6.40;48.30;;;;;;10354275;28;20234;-69
2021/12/28 05:53:42;;;;;;;8.93;8.13;;;6.40;48.20;;;;;;10356757;28;20240;-69
2021/12/28 05:58:45;;;;;;;8.80;7.90;;;6.40;48.00;;;;;;10359112;28;20238;-69
2021/12/28 06:03:49;;;;;;;8.00;7.20;;;6.40;47.90;;;;;;10348683;28;20229;-69
2021/12/28 06:08:53;;;;;;;7.70;7.00;;;6.30;47.80;;;;;;10348355;28;20234;-69
2021/12/28 06:13:56;;;;;;;7.60;6.90;;;6.20;47.90;;;;;;10350822;28;20225;-69
2021/12/28 06:19:07;;;;;;;7.00;6.27;;;6.20;48.10;;;;;;10356392;28;20597;-69
2021/12/28 06:24:12;;;;;;;6.80;6.20;;;6.20;48.40;;;;;;10354670;28;20246;-69
2021/12/28 06:29:17;;;;;;;7.37;6.67;;;6.20;48.20;;;;;;10350234;28;20618;-69
2021/12/28 06:34:20;;;;;;;6.87;6.27;;;6.20;48.20;;;;;;10350107;28;20308;-69
2021/12/28 06:39:25;;;;;;;7.60;6.70;;;6.20;48.00;;;;;;10356399;28;20226;-69
2021/12/28 06:44:28;;;;;;;7.30;6.60;;;6.20;48.10;;;;;;10352427;28;20245;-68
2021/12/28 06:49:31;;;;;;;6.60;5.87;;;6.20;48.10;;;;;;10355168;28;20591;-68
2021/12/28 06:54:37;;;;;;;7.53;6.80;;;6.20;48.20;;;;;;10354708;28;20230;-68
2021/12/28 06:59:44;;;;;;;7.87;7.27;;;6.20;48.30;;;;;;10352179;28;20730;-68
2021/12/28 07:04:47;;;;;;;7.63;6.90;;;6.20;48.30;;;;;;10348440;28;20239;-69
2021/12/28 07:09:52;;;;;;;7.37;6.77;;;6.30;48.40;;;;;;10351099;28;20243;-68
2021/12/28 07:14:55;;;;;;;8.30;7.57;;;6.30;48.50;;;;;;10354637;28;20226;-69
2021/12/28 07:19:58;;;;;;;7.87;7.20;;;6.30;48.40;;;;;;10350552;28;20225;-68
2021/12/28 07:25:03;;;;;;;7.40;6.80;;;6.30;48.30;;;;;;10349243;28;20309;-68
2021/12/28 07:30:10;;;;;;;7.93;7.23;;;6.40;48.50;;;;;;10353526;28;20222;-69
2021/12/28 07:35:13;;;;;;;8.47;7.60;;;6.40;48.50;;;;;;10344186;28;20234;-68
2021/12/28 07:40:17;;;;;;;10.10;9.20;;;6.40;48.40;;;;;;10351275;28;20245;-68
2021/12/28 07:45:21;;;;;;;7.77;7.17;;;6.40;48.50;;;;;;10346904;28;20234;-69
2021/12/28 07:50:24;;;;;;;11.23;10.13;;;6.40;48.60;;;;;;10352189;28;20230;-69
2021/12/28 07:55:28;;;;;;;21.60;17.73;;;6.40;48.70;;;;;;10352475;28;20261;-68
2021/12/28 08:00:32;;;;;;;13.97;12.50;;;6.50;49.00;;;;;;10347756;28;20593;-68
2021/12/28 08:05:38;;;;;;;8.17;7.37;;;6.50;48.90;;;;;;10356168;28;20264;-69
2021/12/28 08:10:42;;;;;;;9.97;8.97;;;6.50;48.90;;;;;;10345587;28;20225;-69
2021/12/28 08:15:46;;;;;;;12.57;11.47;;;6.60;49.10;;;;;;10352561;28;20450;-69
2021/12/28 08:20:49;;;;;;;9.37;8.57;;;6.60;49.00;;;;;;10350432;28;20227;-69
2021/12/28 08:25:54;;;;;;;7.67;6.97;;;6.70;49.00;;;;;;10349191;28;20253;-69
2021/12/28 08:30:57;;;;;;;7.07;6.47;;;6.70;49.00;;;;;;10351194;28;20233;-69
2021/12/28 08:36:01;;;;;;;8.93;8.13;;;6.70;48.90;;;;;;10351721;28;20234;-69
2021/12/28 08:41:05;;;;;;;8.70;7.80;;;6.70;48.90;;;;;;10351594;28;20224;-69
2021/12/28 08:46:08;;;;;;;8.50;7.70;;;6.70;49.10;;;;;;10344611;28;20241;-69
2021/12/28 08:51:12;;;;;;;8.90;7.87;;;6.70;49.00;;;;;;10357066;28;20241;-69
2021/12/28 08:56:16;;;;;;;8.67;7.87;;;6.80;49.20;;;;;;10359105;28;20229;-69
2021/12/28 09:01:20;;;;;;;9.37;8.47;;;6.80;49.60;;;;;;10358304;28;20226;-69
2021/12/28 09:06:23;;;;;;;7.60;6.90;;;6.80;49.50;;;;;;10352594;28;20241;-69
2021/12/28 09:11:28;;;;;;;9.87;8.87;;;6.90;50.40;;;;;;10357039;28;20230;-69
2021/12/28 09:16:31;;;;;;;15.80;14.30;;;6.90;49.80;;;;;;10355378;28;20241;-69
2021/12/28 09:21:34;;;;;;;21.23;19.23;;;7.00;49.70;;;;;;10360173;28;20225;-69
2021/12/28 09:26:39;;;;;;;16.40;14.83;;;7.00;49.70;;;;;;10358443;28;20257;-69
2021/12/28 09:31:42;;;;;;;11.37;10.27;;;7.10;50.00;;;;;;10359505;28;20230;-69
2021/12/28 09:36:45;;;;;;;10.97;8.90;;;7.10;49.90;;;;;;10352093;28;20754;-69
2021/12/28 09:41:50;;;;;;;9.07;8.23;;;7.10;49.90;;;;;;10358384;28;20991;-69
2021/12/28 09:46:54;;;;;;;9.87;8.87;;;7.20;50.30;;;;;;10352903;28;20242;-69
2021/12/28 09:51:57;;;;;;;9.47;8.57;;;7.20;50.20;;;;;;10358996;28;20230;-69
2021/12/28 09:57:04;;;;;;;9.83;8.30;;;7.20;50.40;;;;;;10358471;28;20227;-69
2021/12/28 10:02:10;;;;;;;9.50;8.20;;;7.20;50.40;;;;;;10358115;28;20227;-69
2021/12/28 10:07:18;;;;;;;8.17;7.37;;;7.20;50.40;;;;;;10352770;28;20222;-69
2021/12/28 10:12:30;;;;;;;7.23;6.53;;;7.30;50.40;;;;;;10352002;28;20231;-69
2021/12/28 10:17:35;;;;;;;6.90;6.30;;;7.30;51.00;;;;;;10358293;28;20607;-69
2021/12/28 10:22:42;;;;;;;6.80;6.20;;;7.40;50.50;;;;;;10356357;28;20229;-69
2021/12/28 10:27:48;;;;;;;6.07;5.57;;;7.50;50.60;;;;;;10353202;28;20235;-69
2021/12/28 10:32:53;;;;;;;9.80;8.80;;;7.60;51.10;;;;;;10351997;28;20235;-69
2021/12/28 10:37:58;;;;;;;7.00;6.30;;;7.60;51.10;;;;;;10353025;28;20230;-69
2021/12/28 10:43:07;;;;;;;7.03;5.20;;;7.70;51.60;;;;;;10354014;28;20234;-71
2021/12/28 10:48:17;;;;;;;6.93;4.90;;;7.80;52.30;;;;;;10351503;28;20236;-69
2021/12/28 10:53:24;;;;;;;4.80;4.40;;;8.00;52.70;;;;;;10352606;28;20329;-69
2021/12/28 10:58:35;;;;;;;4.33;3.93;;;8.00;52.70;;;;;;10355100;28;20226;-69
2021/12/28 11:03:41;;;;;;;4.93;4.33;;;8.20;53.20;;;;;;10357334;28;20230;-69
2021/12/28 11:08:47;;;;;;;5.80;4.43;;;8.30;52.90;;;;;;10354505;28;20285;-69
2021/12/28 11:13:54;;;;;;;4.77;4.23;;;8.40;52.60;;;;;;10353284;28;20256;-69
2021/12/28 11:18:59;;;;;;;5.90;4.20;;;8.50;52.80;;;;;;10352837;28;20230;-69
2021/12/28 11:24:05;;;;;;;4.57;4.10;;;8.60;52.30;;;;;;10344871;28;20219;-69
2021/12/28 11:29:11;;;;;;;3.70;3.40;;;8.60;52.40;;;;;;10346817;28;20430;-69
2021/12/28 11:34:19;;;;;;;4.40;3.90;;;8.70;52.50;;;;;;10342979;28;20231;-69
2021/12/28 11:39:25;;;;;;;3.80;3.50;;;8.70;52.30;;;;;;10352966;28;20234;-69
2021/12/28 11:44:31;;;;;;;4.87;4.47;;;8.80;52.60;;;;;;10350363;28;20236;-69
2021/12/28 11:49:34;;;;;;;5.97;3.93;;;8.90;52.80;;;;;;10349762;28;20222;-69
2021/12/28 11:54:40;;;;;;;4.70;4.10;;;8.90;52.50;;;;;;10354127;28;20604;-69
2021/12/28 11:59:52;;;;;;;3.87;3.47;;;9.00;52.60;;;;;;10351884;28;20719;-69
2021/12/28 12:04:57;;;;;;;5.03;3.20;;;9.10;53.00;;;;;;10353444;28;20235;-69
2021/12/28 12:10:30;;;;;;;3.47;2.87;;;9.20;52.30;;;;;;10351841;28;20234;-68
2021/12/28 12:15:44;;;;;;;4.63;3.80;;;9.20;53.10;;;;;;10352420;28;20651;-69
2021/12/28 12:20:54;;;;;;;3.70;3.40;;;9.30;53.10;;;;;;10346488;28;20248;-69
2021/12/28 12:26:06;;;;;;;3.70;3.27;;;9.30;52.70;;;;;;10339549;28;20225;-69
2021/12/28 12:31:20;;;;;;;3.70;3.10;;;9.40;53.10;;;;;;10340612;28;20242;-69
2021/12/28 12:36:31;;;;;;;3.87;3.27;;;9.50;52.60;;;;;;10340346;28;20241;-69
2021/12/28 12:41:41;;;;;;;5.70;3.23;;;9.60;52.40;;;;;;10340451;28;20252;-69
2021/12/28 12:46:47;;;;;;;3.23;2.93;;;9.70;53.30;;;;;;10344498;28;20235;-69
2021/12/28 12:52:00;;;;;;;5.67;5.07;;;9.80;53.20;;;;;;10339123;28;20284;-69
2021/12/28 12:57:09;;;;;;;3.30;3.00;;;9.80;53.80;;;;;;10337170;28;20222;-69
2021/12/28 13:02:28;;;;;;;3.63;2.93;;;10.00;52.70;;;;;;10340916;28;20222;-69
2021/12/28 13:07:35;;;;;;;3.67;2.87;;;10.10;53.20;;;;;;10345050;28;20238;-69
2021/12/28 13:12:40;;;;;;;2.93;2.73;;;10.20;52.30;;;;;;10334267;28;20232;-69
2021/12/28 13:17:47;;;;;;;3.67;2.77;;;10.30;52.00;;;;;;10338409;28;20242;-69
2021/12/28 13:22:53;;;;;;;3.20;2.77;;;10.50;52.40;;;;;;10336140;28;20249;-69
2021/12/28 13:27:57;;;;;;;3.33;2.80;;;10.50;52.20;;;;;;10341992;28;20226;-69
2021/12/28 13:33:03;;;;;;;4.63;3.70;;;10.60;52.20;;;;;;10339830;28;20230;-69
2021/12/28 13:38:08;;;;;;;3.50;2.77;;;10.70;52.30;;;;;;10349353;28;20546;-69
2021/12/28 13:43:14;;;;;;;3.67;2.60;;;10.80;52.40;;;;;;10346178;28;20230;-69
2021/12/28 13:48:23;;;;;;;4.00;3.40;;;10.80;52.40;;;;;;10351106;28;20609;-69
2021/12/28 13:53:28;;;;;;;2.87;2.53;;;10.90;52.50;;;;;;10349736;28;20431;-69
2021/12/28 13:58:34;;;;;;;3.00;2.70;;;11.00;52.30;;;;;;10347737;28;20234;-69
2021/12/28 14:03:39;;;;;;;2.80;2.50;;;11.00;52.30;;;;;;10351147;28;20226;-69
2021/12/28 14:08:44;;;;;;;2.67;2.23;;;11.10;52.30;;;;;;10348416;28;20262;-69
2021/12/28 14:13:48;;;;;;;2.50;2.30;;;11.10;52.10;;;;;;10347978;28;20227;-70
2021/12/28 14:18:54;;;;;;;3.30;3.00;;;11.20;51.90;;;;;;10351213;28;20712;-72
2021/12/28 14:24:01;;;;;;;2.40;2.20;;;11.20;52.00;;;;;;10348636;28;20218;-72
2021/12/28 14:29:07;;;;;;;3.00;2.80;;;11.30;51.80;;;;;;10354433;28;20572;-72
2021/12/28 14:34:14;;;;;;;3.03;2.73;;;11.30;51.70;;;;;;10354346;28;20241;-71
2021/12/28 14:39:21;;;;;;;3.70;3.23;;;11.40;51.80;;;;;;10352448;28;20262;-71
2021/12/28 14:44:30;;;;;;;3.40;3.10;;;11.40;51.50;;;;;;10355446;28;20234;-72
2021/12/28 14:49:37;;;;;;;4.47;3.90;;;11.40;51.60;;;;;;10350916;28;20242;-72
2021/12/28 14:55:01;;;;;;;3.77;3.43;;;11.50;51.50;;;;;;10355045;28;20750;-72
2021/12/28 15:00:10;;;;;;;4.20;3.90;;;11.40;51.30;;;;;;10352347;28;20220;-72
2021/12/28 15:05:15;;;;;;;9.13;8.33;;;11.40;50.90;;;;;;10355861;28;20233;-72
2021/12/28 15:10:18;;;;;;;8.07;7.27;;;11.40;50.80;;;;;;10347934;28;20226;-72
2021/12/28 15:15:21;;;;;;;7.43;6.40;;;11.40;50.50;;;;;;10355807;28;20234;-72
2021/12/28 15:20:26;;;;;;;6.60;6.00;;;11.40;50.40;;;;;;10353707;28;20242;-72
2021/12/28 15:25:31;;;;;;;7.13;5.97;;;11.30;50.60;;;;;;10353115;28;20237;-72
2021/12/28 15:30:37;;;;;;;6.07;5.57;;;11.30;50.50;;;;;;10354688;28;20257;-72
2021/12/28 15:35:43;;;;;;;4.83;4.43;;;11.20;51.00;;;;;;10352706;28;20230;-72
2021/12/28 15:40:49;;;;;;;4.00;3.70;;;11.20;51.70;;;;;;10349710;28;20612;-72
2021/12/28 15:45:54;;;;;;;3.60;3.30;;;11.30;52.30;;;;;;10351131;28;20257;-71
2021/12/28 15:51:02;;;;;;;4.37;3.97;;;11.30;52.80;;;;;;10354196;28;20227;-72
2021/12/28 15:56:05;;;;;;;2.90;2.60;;;11.40;52.90;;;;;;10351134;28;20242;-72
2021/12/28 16:01:09;;;;;;;4.40;4.00;;;11.50;53.00;;;;;;10345564;28;20703;-71
2021/12/28 16:06:15;;;;;;;5.57;4.30;;;11.70;53.20;;;;;;10344955;28;20230;-72
2021/12/28 16:11:20;;;;;;;4.77;4.27;;;11.70;53.20;;;;;;10352354;28;20591;-71
2021/12/28 16:16:23;;;;;;;5.73;3.80;;;11.80;53.30;;;;;;10346214;28;20245;-71
2021/12/28 16:21:28;;;;;;;3.07;2.53;;;11.90;53.30;;;;;;10350654;28;20317;-71
2021/12/28 16:26:31;;;;;;;2.17;2.00;;;12.00;53.50;;;;;;10349435;28;20238;-72
2021/12/28 16:31:35;;;;;;;2.30;2.00;;;12.10;53.40;;;;;;10344941;28;20237;-71
2021/12/28 16:36:41;;;;;;;2.33;2.13;;;12.20;53.60;;;;;;10348532;28;20230;-71
2021/12/28 16:41:45;;;;;;;1.60;1.50;;;12.20;53.60;;;;;;10357176;28;20251;-71
2021/12/28 16:46:54;;;;;;;1.13;1.13;;;12.20;53.60;;;;;;10349226;28;20234;-72
2021/12/28 16:51:58;;;;;;;1.20;1.20;;;12.30;53.70;;;;;;10352218;28;20226;-71
2021/12/28 16:57:03;;;;;;;1.20;1.10;;;12.40;53.80;;;;;;10346381;28;20233;-71
2021/12/28 17:02:06;;;;;;;1.10;1.10;;;12.50;53.80;;;;;;10352427;28;21047;-71
2021/12/28 17:07:11;;;;;;;1.20;1.10;;;12.50;53.10;;;;;;10344244;28;20604;-71
2021/12/28 17:12:14;;;;;;;2.43;2.23;;;12.60;52.60;;;;;;10354613;28;20253;-72
2021/12/28 17:17:18;;;;;;;1.43;1.10;;;12.60;52.30;;;;;;10348860;28;20233;-71
2021/12/28 17:22:23;;;;;;;0.90;0.90;;;12.60;52.20;;;;;;10355055;28;22496;-71
2021/12/28 17:27:26;;;;;;;1.03;0.73;;;12.60;51.70;;;;;;10362599;28;20882;-72
2021/12/28 17:32:29;;;;;;;1.83;0.67;;;12.60;51.70;;;;;;10359415;28;20230;-71
2021/12/28 17:37:33;;;;;;;3.30;1.00;;;12.50;48.10;;;;;;10358947;28;20729;-71
2021/12/28 17:42:37;;;;;;;2.13;0.80;;;12.00;46.60;;;;;;10361361;28;20226;-71
2021/12/28 17:47:41;;;;;;;1.40;0.80;;;11.60;47.30;;;;;;10357202;28;20241;-71
2021/12/28 17:52:46;;;;;;;1.73;0.93;;;11.30;47.90;;;;;;10358433;28;20242;-71
2021/12/28 17:57:50;;;;;;;1.13;1.00;;;11.00;48.00;;;;;;10358155;28;20240;-71
2021/12/28 18:03:08;;;;;;;1.40;1.30;;;10.80;48.60;;;;;;10359783;28;20678;-71
2021/12/28 18:08:13;;;;;;;2.17;1.07;;;10.70;48.70;;;;;;10356888;28;20227;-71
2021/12/28 18:13:16;;;;;;;0.70;0.70;;;10.60;48.90;;;;;;10349097;28;20231;-71
2021/12/28 18:18:20;;;;;;;1.83;1.00;;;10.60;49.30;;;;;;10358110;28;20222;-71
2021/12/28 18:23:25;;;;;;;1.90;1.00;;;10.50;49.30;;;;;;10355466;28;20227;-71
2021/12/28 18:28:28;;;;;;;1.53;0.90;;;10.50;48.60;;;;;;10357446;28;20674;-71
2021/12/28 18:33:32;;;;;;;2.13;1.10;;;10.40;48.70;;;;;;10357147;28;20242;-71
2021/12/28 18:38:37;;;;;;;1.97;1.30;;;10.30;49.00;;;;;;10353293;28;20227;-71
2021/12/28 18:43:40;;;;;;;2.17;1.27;;;10.30;48.90;;;;;;10357259;28;20233;-71
2021/12/28 18:48:44;;;;;;;1.57;1.03;;;10.30;49.00;;;;;;10352475;28;20238;-71
2021/12/28 18:53:50;;;;;;;2.80;1.50;;;10.30;49.00;;;;;;10354293;28;20237;-71
2021/12/28 18:58:54;;;;;;;2.10;1.20;;;10.20;49.10;;;;;;10354734;28;20230;-71
2021/12/28 19:03:58;;;;;;;2.37;1.57;;;10.20;49.30;;;;;;10353756;28;20337;-71
2021/12/28 19:09:03;;;;;;;2.53;1.47;;;10.20;49.20;;;;;;10349776;28;20601;-71
2021/12/28 19:14:06;;;;;;;1.47;1.37;;;10.30;48.90;;;;;;10349363;28;20230;-71
2021/12/28 19:19:09;;;;;;;1.60;1.40;;;10.30;49.00;;;;;;10350133;28;20218;-71
2021/12/28 19:24:14;;;;;;;2.70;1.50;;;10.30;48.80;;;;;;10352009;28;20225;-71
2021/12/28 19:29:17;;;;;;;2.60;1.60;;;10.30;48.60;;;;;;10355460;28;20222;-71
2021/12/28 19:34:20;;;;;;;2.57;1.20;;;10.30;48.70;;;;;;10345084;28;20233;-71
2021/12/28 19:39:25;;;;;;;1.53;1.10;;;10.30;48.60;;;;;;10354370;28;20235;-71
2021/12/28 19:44:30;;;;;;;2.30;1.33;;;10.30;48.30;;;;;;10351526;28;20598;-71
2021/12/28 19:49:37;;;;;;;1.73;1.37;;;10.20;48.60;;;;;;10351823;28;20227;-72
2021/12/28 19:54:42;;;;;;;1.83;1.23;;;10.10;48.70;;;;;;10352900;28;20222;-71
2021/12/28 19:59:46;;;;;;;1.33;0.97;;;10.10;48.70;;;;;;10355768;28;20591;-71
2021/12/28 20:04:50;;;;;;;3.23;1.10;;;10.10;48.80;;;;;;10348612;28;20230;-71
2021/12/28 20:09:55;;;;;;;2.33;1.20;;;10.10;48.90;;;;;;10348927;28;20238;-71
2021/12/28 20:14:58;;;;;;;2.33;1.40;;;10.10;48.90;;;;;;10348607;28;20231;-71
2021/12/28 20:20:03;;;;;;;1.80;1.07;;;10.10;49.10;;;;;;10354011;28;20703;-75
2021/12/28 20:25:11;;;;;;;4.33;1.67;;;10.10;49.50;;;;;;10350260;28;20604;-75
2021/12/28 20:30:17;;;;;;;3.17;1.63;;;10.00;49.50;;;;;;10351493;28;20225;-75
2021/12/28 20:35:20;;;;;;;2.73;1.50;;;10.00;49.70;;;;;;10347862;28;20711;-75
2021/12/28 20:40:25;;;;;;;3.00;1.50;;;10.10;49.80;;;;;;10342823;28;20226;-75
2021/12/28 20:45:29;;;;;;;1.70;1.00;;;10.10;49.70;;;;;;10339906;28;20229;-75
2021/12/28 20:50:32;;;;;;;3.23;1.20;;;10.20;49.60;;;;;;10342058;28;20322;-75
2021/12/28 20:55:37;;;;;;;2.37;1.13;;;10.20;49.40;;;;;;10337433;28;20593;-75
2021/12/28 21:00:41;;;;;;;1.43;1.00;;;10.20;49.30;;;;;;10339792;28;20222;-75
2021/12/28 21:05:45;;;;;;;3.50;1.20;;;10.20;49.30;;;;;;10338558;28;20341;-75
2021/12/28 21:10:51;;;;;;;1.97;0.93;;;10.20;49.40;;;;;;10343678;28;20613;-75
2021/12/28 21:15:56;;;;;;;2.00;1.07;;;10.20;49.40;;;;;;10344221;28;20234;-75
2021/12/28 21:20:59;;;;;;;1.27;0.80;;;10.10;49.00;;;;;;10335243;28;20226;-75
2021/12/28 21:26:04;;;;;;;2.33;0.90;;;10.20;49.00;;;;;;10339176;28;20226;-74
2021/12/28 21:31:07;;;;;;;1.83;1.10;;;10.10;48.90;;;;;;10335778;28;20226;-75
2021/12/28 21:36:11;;;;;;;1.10;0.90;;;10.10;49.10;;;;;;10344453;28;20313;-75
2021/12/28 21:41:15;;;;;;;1.80;0.93;;;10.10;49.30;;;;;;10338106;28;20233;-75
2021/12/28 21:46:18;;;;;;;3.30;1.07;;;10.10;49.20;;;;;;10336036;28;20231;-75
2021/12/28 21:51:22;;;;;;;1.90;1.00;;;10.10;49.30;;;;;;10342283;28;20680;-76
2021/12/28 21:56:27;;;;;;;1.23;0.90;;;10.10;49.20;;;;;;10343963;28;20554;-76
2021/12/28 22:01:30;;;;;;;1.23;1.00;;;10.00;49.00;;;;;;10347127;28;20226;-76
2021/12/28 22:06:33;;;;;;;0.67;0.67;;;9.90;50.00;;;;;;10356303;28;20246;-76
2021/12/28 22:11:38;;;;;;;1.67;0.93;;;9.80;50.10;;;;;;10354082;28;20229;-76
2021/12/28 22:16:43;;;;;;;1.47;0.80;;;9.70;50.30;;;;;;10348116;28;20234;-76
2021/12/28 22:21:48;;;;;;;1.00;0.80;;;9.70;50.40;;;;;;10356985;28;20230;-76
2021/12/28 22:26:52;;;;;;;1.00;0.90;;;9.60;50.70;;;;;;10353925;28;20605;-76
2021/12/28 22:31:58;;;;;;;1.63;0.90;;;9.60;50.80;;;;;;10354844;28;20627;-76
2021/12/28 22:37:01;;;;;;;1.63;1.00;;;9.60;50.90;;;;;;10361482;28;20253;-76
2021/12/28 22:42:07;;;;;;;1.23;0.90;;;9.60;51.00;;;;;;10353197;28;20210;-76
2021/12/28 22:47:10;;;;;;;1.03;0.90;;;9.60;51.50;;;;;;10353895;28;20596;-75
2021/12/28 22:52:13;;;;;;;1.23;0.90;;;9.60;51.70;;;;;;10351389;28;20233;-76
2021/12/28 22:57:18;;;;;;;0.60;0.60;;;9.60;52.00;;;;;;10349356;28;20226;-75
2021/12/28 23:02:21;;;;;;;0.53;0.50;;;9.80;52.40;;;;;;10352932;28;20240;-76
2021/12/28 23:07:25;;;;;;;2.40;0.90;;;9.80;52.00;;;;;;10349433;28;20238;-75
2021/12/28 23:12:29;;;;;;;2.80;0.97;;;9.90;52.40;;;;;;10355740;28;20230;-76
2021/12/28 23:17:34;;;;;;;1.03;0.80;;;9.90;52.60;;;;;;10351234;28;20608;-76
2021/12/28 23:22:38;;;;;;;1.70;0.70;;;10.00;51.70;;;;;;10352384;28;20233;-76
2021/12/28 23:27:42;;;;;;;1.57;0.90;;;10.10;51.80;;;;;;10353668;28;20245;-76
2021/12/28 23:32:46;;;;;;;1.33;0.97;;;10.10;51.80;;;;;;10356505;28;20222;-76
2021/12/28 23:37:50;;;;;;;1.47;0.93;;;10.20;51.80;;;;;;10353114;28;20254;-76
2021/12/28 23:42:54;;;;;;;1.47;0.80;;;10.20;51.80;;;;;;10350887;28;20222;-76
2021/12/28 23:47:58;;;;;;;2.10;0.90;;;10.30;52.00;;;;;;10349611;28;20605;-76
2021/12/28 23:53:01;;;;;;;2.10;1.07;;;10.30;51.80;;;;;;10353560;28;20701;-76
2021/12/28 23:58:05;;;;;;;2.13;1.10;;;10.40;52.10;;;;;;10353306;28;20226;-76
